createdAt,value
2023-01-11T00:00:32.343Z,0.00
2023-01-11T00:01:32.351Z,0.00
2023-01-11T00:02:32.360Z,0.00
2023-01-11T00:03:32.338Z,0.00
2023-01-11T00:04:32.338Z,0.00
2023-01-11T00:05:32.271Z,0.00
2023-01-11T00:06:32.343Z,0.00
2023-01-11T00:07:32.372Z,0.00
2023-01-11T00:08:32.258Z,0.00
2023-01-11T00:09:32.275Z,0.00
2023-01-11T00:10:32.216Z,0.00
2023-01-11T00:11:32.244Z,0.00
2023-01-11T00:12:32.206Z,0.00
2023-01-11T00:13:32.208Z,0.00
2023-01-11T00:14:32.189Z,0.00
2023-01-11T00:15:32.214Z,0.00
2023-01-11T00:16:32.223Z,0.00
2023-01-11T00:17:32.185Z,0.00
2023-01-11T00:18:32.150Z,0.00
2023-01-11T00:19:32.129Z,0.00
2023-01-11T00:20:32.153Z,0.00
2023-01-11T00:21:32.211Z,0.00
2023-01-11T00:22:32.092Z,0.00
2023-01-11T00:23:32.129Z,0.00
2023-01-11T00:24:32.104Z,0.00
2023-01-11T00:25:32.118Z,0.00
2023-01-11T00:26:32.116Z,0.00
2023-01-11T00:27:32.081Z,0.00
2023-01-11T00:28:32.049Z,0.00
2023-01-11T00:29:32.031Z,0.00
2023-01-11T00:30:32.030Z,0.00
2023-01-11T00:31:32.095Z,0.00
2023-01-11T00:32:32.032Z,0.00
2023-01-11T00:33:32.012Z,0.00
2023-01-11T00:34:31.980Z,0.00
2023-01-11T00:35:31.972Z,0.00
2023-01-11T00:36:31.984Z,0.00
2023-01-11T00:37:32.173Z,0.00
2023-01-11T00:38:32.067Z,0.00
2023-01-11T00:39:31.945Z,0.00
2023-01-11T00:40:31.974Z,0.00
2023-01-11T00:41:31.948Z,0.00
2023-01-11T00:42:31.919Z,0.00
2023-01-11T00:43:31.896Z,0.00
2023-01-11T00:44:31.885Z,0.00
2023-01-11T00:45:31.870Z,0.00
2023-01-11T00:46:31.915Z,0.00
2023-01-11T00:47:31.851Z,0.00
2023-01-11T00:48:31.822Z,0.00
2023-01-11T00:49:31.821Z,0.00
2023-01-11T00:50:31.833Z,0.00
2023-01-11T00:51:31.943Z,0.00
2023-01-11T00:52:31.827Z,0.00
2023-01-11T00:53:31.784Z,0.00
2023-01-11T00:54:31.775Z,0.00
2023-01-11T00:55:31.780Z,0.00
2023-01-11T00:56:31.757Z,0.00
2023-01-11T00:57:31.740Z,0.00
2023-01-11T00:58:31.715Z,0.00
2023-01-11T00:59:31.721Z,0.00
2023-01-11T01:00:31.738Z,0.00
2023-01-11T01:01:31.817Z,0.00
2023-01-11T01:02:31.727Z,0.00
2023-01-11T01:03:31.692Z,0.00
2023-01-11T01:04:31.655Z,0.00
2023-01-11T01:05:31.655Z,0.00
2023-01-11T01:06:31.683Z,0.00
2023-01-11T01:07:31.667Z,0.00
2023-01-11T01:08:31.636Z,0.00
2023-01-11T01:09:31.629Z,0.00
2023-01-11T01:10:31.681Z,0.00
2023-01-11T01:11:31.608Z,0.00
2023-01-11T01:12:31.569Z,0.00
2023-01-11T01:13:31.574Z,0.00
2023-01-11T01:14:31.560Z,0.00
2023-01-11T01:15:31.691Z,0.00
2023-01-11T01:16:31.568Z,0.00
2023-01-11T01:17:31.556Z,0.00
2023-01-11T01:18:31.507Z,0.00
2023-01-11T01:19:31.528Z,0.00
2023-01-11T01:20:31.531Z,0.00
2023-01-11T01:21:31.488Z,0.00
2023-01-11T01:22:31.476Z,0.00
2023-01-11T01:23:31.461Z,0.00
2023-01-11T01:24:31.476Z,0.00
2023-01-11T01:25:31.465Z,0.00
2023-01-11T01:26:31.444Z,0.00
2023-01-11T01:27:32.214Z,0.00
2023-01-11T01:28:31.400Z,0.00
2023-01-11T01:29:31.403Z,0.00
2023-01-11T01:30:31.489Z,0.00
2023-01-11T01:31:31.478Z,0.00
2023-01-11T01:32:31.372Z,0.00
2023-01-11T01:33:31.357Z,0.00
2023-01-11T01:34:31.362Z,0.00
2023-01-11T01:35:31.332Z,0.00
2023-01-11T01:36:31.357Z,0.00
2023-01-11T01:37:31.354Z,0.00
2023-01-11T01:38:31.370Z,0.00
2023-01-11T01:39:31.306Z,0.00
2023-01-11T01:40:31.291Z,0.00
2023-01-11T01:41:31.281Z,0.00
2023-01-11T01:42:31.289Z,0.00
2023-01-11T01:43:31.260Z,0.00
2023-01-11T01:44:31.235Z,0.00
2023-01-11T01:45:31.270Z,0.00
2023-01-11T01:46:31.243Z,0.00
2023-01-11T01:47:31.262Z,0.00
2023-01-11T01:48:31.203Z,0.00
2023-01-11T01:49:31.248Z,0.00
2023-01-11T01:50:31.174Z,0.00
2023-01-11T01:51:31.177Z,0.00
2023-01-11T01:52:31.209Z,0.00
2023-01-11T01:53:31.152Z,0.00
2023-01-11T01:54:31.155Z,0.00
2023-01-11T01:55:31.137Z,0.00
2023-01-11T01:56:31.124Z,0.00
2023-01-11T01:57:31.169Z,0.00
2023-01-11T01:58:31.089Z,0.00
2023-01-11T01:59:31.109Z,0.00
2023-01-11T02:00:31.081Z,0.00
2023-01-11T02:01:31.202Z,0.00
2023-01-11T02:02:31.107Z,0.00
2023-01-11T02:03:31.058Z,0.00
2023-01-11T02:04:31.046Z,0.00
2023-01-11T02:05:31.049Z,0.00
2023-01-11T02:06:31.039Z,0.00
2023-01-11T02:07:31.052Z,0.00
2023-01-11T02:08:30.994Z,0.00
2023-01-11T02:09:31.007Z,0.00
2023-01-11T02:10:30.967Z,0.00
2023-01-11T02:11:30.992Z,0.00
2023-01-11T02:12:30.967Z,0.00
2023-01-11T02:13:30.975Z,0.00
2023-01-11T02:14:30.993Z,0.00
2023-01-11T02:15:30.930Z,0.00
2023-01-11T02:16:30.974Z,0.00
2023-01-11T02:17:30.958Z,0.00
2023-01-11T02:18:30.891Z,0.00
2023-01-11T02:19:30.883Z,0.00
2023-01-11T02:20:30.922Z,0.00
2023-01-11T02:21:30.867Z,0.00
2023-01-11T02:22:30.864Z,0.00
2023-01-11T02:23:30.844Z,0.00
2023-01-11T02:24:30.855Z,0.00
2023-01-11T02:25:30.824Z,0.00
2023-01-11T02:26:30.807Z,0.00
2023-01-11T02:27:30.895Z,0.00
2023-01-11T02:28:30.788Z,0.00
2023-01-11T02:29:30.778Z,0.00
2023-01-11T02:30:30.793Z,0.00
2023-01-11T02:31:30.855Z,0.00
2023-01-11T02:32:30.769Z,0.00
2023-01-11T02:33:30.764Z,0.00
2023-01-11T02:34:30.736Z,0.00
2023-01-11T02:35:30.728Z,0.00
2023-01-11T02:36:30.727Z,0.00
2023-01-11T02:37:30.729Z,0.00
2023-01-11T02:38:30.726Z,0.00
2023-01-11T02:39:30.679Z,0.00
2023-01-11T02:40:30.783Z,0.00
2023-01-11T02:41:30.650Z,0.00
2023-01-11T02:42:30.733Z,0.00
2023-01-11T02:43:30.652Z,0.00
2023-01-11T02:44:30.636Z,0.00
2023-01-11T02:45:30.632Z,0.00
2023-01-11T02:46:30.685Z,0.00
2023-01-11T02:47:30.675Z,0.00
2023-01-11T02:48:30.578Z,0.00
2023-01-11T02:49:30.601Z,0.00
2023-01-11T02:50:30.553Z,0.00
2023-01-11T02:51:30.567Z,0.00
2023-01-11T02:52:30.557Z,0.00
2023-01-11T02:53:30.540Z,0.00
2023-01-11T02:54:30.547Z,0.00
2023-01-11T02:55:30.517Z,0.00
2023-01-11T02:56:30.500Z,0.00
2023-01-11T02:57:30.544Z,0.00
2023-01-11T02:58:30.489Z,0.00
2023-01-11T02:59:30.531Z,0.00
2023-01-11T03:00:30.470Z,0.00
2023-01-11T03:01:30.519Z,0.00
2023-01-11T03:02:30.515Z,0.00
2023-01-11T03:03:30.436Z,0.00
2023-01-11T03:04:30.423Z,0.00
2023-01-11T03:05:30.415Z,0.00
2023-01-11T03:06:30.507Z,0.00
2023-01-11T03:07:30.436Z,0.00
2023-01-11T03:08:30.396Z,0.00
2023-01-11T03:09:30.373Z,0.00
2023-01-11T03:10:30.359Z,0.00
2023-01-11T03:11:30.377Z,0.00
2023-01-11T03:12:30.377Z,0.00
2023-01-11T03:13:30.410Z,0.00
2023-01-11T03:14:30.324Z,0.00
2023-01-11T03:15:30.354Z,0.00
2023-01-11T03:16:30.355Z,0.00
2023-01-11T03:17:30.297Z,0.00
2023-01-11T03:18:30.315Z,0.00
2023-01-11T03:19:30.255Z,0.00
2023-01-11T03:20:30.254Z,0.00
2023-01-11T03:21:30.281Z,0.00
2023-01-11T03:22:30.251Z,0.00
2023-01-11T03:23:30.263Z,0.00
2023-01-11T03:24:30.199Z,0.00
2023-01-11T03:25:30.216Z,0.00
2023-01-11T03:26:30.185Z,0.00
2023-01-11T03:27:30.218Z,0.00
2023-01-11T03:28:30.164Z,0.00
2023-01-11T03:29:30.163Z,0.00
2023-01-11T03:30:30.165Z,0.00
2023-01-11T03:31:30.263Z,0.00
2023-01-11T03:32:30.147Z,0.00
2023-01-11T03:33:30.113Z,0.00
2023-01-11T03:34:30.095Z,0.00
2023-01-11T03:35:30.143Z,0.00
2023-01-11T03:36:30.072Z,0.00
2023-01-11T03:37:30.111Z,0.00
2023-01-11T03:38:30.061Z,0.00
2023-01-11T03:39:30.064Z,0.00
2023-01-11T03:40:30.051Z,0.00
2023-01-11T03:41:30.086Z,0.00
2023-01-11T03:42:30.017Z,0.00
2023-01-11T03:43:30.009Z,0.00
2023-01-11T03:44:30.017Z,0.00
2023-01-11T03:45:29.990Z,0.00
2023-01-11T03:46:30.054Z,0.00
2023-01-11T03:47:30.031Z,0.00
2023-01-11T03:48:29.959Z,0.00
2023-01-11T03:49:29.969Z,0.00
2023-01-11T03:50:29.939Z,0.00
2023-01-11T03:51:29.952Z,0.00
2023-01-11T03:52:29.955Z,0.00
2023-01-11T03:53:29.954Z,0.00
2023-01-11T03:54:29.894Z,0.00
2023-01-11T03:55:29.910Z,0.00
2023-01-11T03:56:29.876Z,0.00
2023-01-11T03:57:29.860Z,0.00
2023-01-11T03:58:29.956Z,0.00
2023-01-11T03:59:29.845Z,0.00
2023-01-11T04:00:29.904Z,0.00
2023-01-11T04:01:29.888Z,0.00
2023-01-11T04:02:29.872Z,0.00
2023-01-11T04:03:29.818Z,0.00
2023-01-11T04:04:29.868Z,0.00
2023-01-11T04:05:29.802Z,0.00
2023-01-11T04:06:29.853Z,0.00
2023-01-11T04:07:29.812Z,0.00
2023-01-11T04:08:29.755Z,0.00
2023-01-11T04:09:29.738Z,0.00
2023-01-11T04:10:29.761Z,0.00
2023-01-11T04:11:29.731Z,0.00
2023-01-11T04:12:29.730Z,0.00
2023-01-11T04:13:29.740Z,0.00
2023-01-11T04:14:29.744Z,0.00
2023-01-11T04:15:29.669Z,0.00
2023-01-11T04:16:29.698Z,0.00
2023-01-11T04:17:29.658Z,0.00
2023-01-11T04:18:29.687Z,0.00
2023-01-11T04:19:29.632Z,0.00
2023-01-11T04:20:29.625Z,0.00
2023-01-11T04:21:29.629Z,0.00
2023-01-11T04:22:29.632Z,0.00
2023-01-11T04:23:29.636Z,0.00
2023-01-11T04:24:29.605Z,0.00
2023-01-11T04:25:29.569Z,0.00
2023-01-11T04:26:29.580Z,0.00
2023-01-11T04:27:29.585Z,0.00
2023-01-11T04:28:29.582Z,0.00
2023-01-11T04:29:29.561Z,0.00
2023-01-11T04:30:29.528Z,0.00
2023-01-11T04:31:29.579Z,0.00
2023-01-11T04:32:29.518Z,0.00
2023-01-11T04:33:29.488Z,0.00
2023-01-11T04:34:29.515Z,0.00
2023-01-11T04:35:29.471Z,0.00
2023-01-11T04:36:29.475Z,0.00
2023-01-11T04:37:29.468Z,0.00
2023-01-11T04:38:29.449Z,0.00
2023-01-11T04:39:29.429Z,0.00
2023-01-11T04:40:29.445Z,0.00
2023-01-11T04:41:29.401Z,0.00
2023-01-11T04:42:29.404Z,0.00
2023-01-11T04:43:29.398Z,0.00
2023-01-11T04:44:29.410Z,0.00
2023-01-11T04:45:29.399Z,0.00
2023-01-11T04:46:29.388Z,0.00
2023-01-11T04:47:29.378Z,0.00
2023-01-11T04:48:29.336Z,0.00
2023-01-11T04:49:29.313Z,0.00
2023-01-11T04:50:29.390Z,0.00
2023-01-11T04:51:29.298Z,0.00
2023-01-11T04:52:29.308Z,0.00
2023-01-11T04:53:29.288Z,0.00
2023-01-11T04:54:29.269Z,0.00
2023-01-11T04:55:29.251Z,0.00
2023-01-11T04:56:29.295Z,0.00
2023-01-11T04:57:29.243Z,0.00
2023-01-11T04:58:29.285Z,0.00
2023-01-11T04:59:29.219Z,0.00
2023-01-11T05:00:29.207Z,0.00
2023-01-11T05:01:29.206Z,0.00
2023-01-11T05:02:29.200Z,0.00
2023-01-11T05:03:29.181Z,0.00
2023-01-11T05:04:29.231Z,0.00
2023-01-11T05:05:29.181Z,0.00
2023-01-11T05:06:29.314Z,0.00
2023-01-11T05:07:29.162Z,0.00
2023-01-11T05:08:29.141Z,0.00
2023-01-11T05:09:29.175Z,0.00
2023-01-11T05:10:29.165Z,0.00
2023-01-11T05:11:29.105Z,0.00
2023-01-11T05:12:29.194Z,0.00
2023-01-11T05:13:29.078Z,0.00
2023-01-11T05:14:29.072Z,0.00
2023-01-11T05:15:29.068Z,0.00
2023-01-11T05:16:29.165Z,0.00
2023-01-11T05:17:29.030Z,0.00
2023-01-11T05:18:29.042Z,0.00
2023-01-11T05:19:29.011Z,0.00
2023-01-11T05:20:29.033Z,0.00
2023-01-11T05:21:29.005Z,0.00
2023-01-11T05:22:29.020Z,0.00
2023-01-11T05:23:29.007Z,0.00
2023-01-11T05:24:28.977Z,0.00
2023-01-11T05:25:28.952Z,0.00
2023-01-11T05:26:29.052Z,0.00
2023-01-11T05:27:28.933Z,0.00
2023-01-11T05:28:34.999Z,0.00
2023-01-11T05:29:28.905Z,0.00
2023-01-11T05:30:28.908Z,0.00
2023-01-11T05:31:31.531Z,0.00
2023-01-11T05:32:28.898Z,0.00
2023-01-11T05:33:28.897Z,0.00
2023-01-11T05:34:28.905Z,0.00
2023-01-11T05:35:28.836Z,0.00
2023-01-11T05:36:28.846Z,0.00
2023-01-11T05:37:28.826Z,0.00
2023-01-11T05:38:28.862Z,0.00
2023-01-11T05:39:28.814Z,0.00
2023-01-11T05:40:28.804Z,0.00
2023-01-11T05:41:28.809Z,0.00
2023-01-11T05:42:28.833Z,0.00
2023-01-11T05:43:28.863Z,0.00
2023-01-11T05:44:28.822Z,0.00
2023-01-11T05:45:28.913Z,0.00
2023-01-11T05:46:28.739Z,0.00
2023-01-11T05:47:28.732Z,0.00
2023-01-11T05:48:28.858Z,0.00
2023-01-11T05:49:28.725Z,0.00
2023-01-11T05:50:28.715Z,0.00
2023-01-11T05:51:28.682Z,0.00
2023-01-11T05:52:28.793Z,0.00
2023-01-11T05:53:28.732Z,0.00
2023-01-11T05:54:28.656Z,0.00
2023-01-11T05:55:28.634Z,0.00
2023-01-11T05:56:28.628Z,0.00
2023-01-11T05:57:28.611Z,0.00
2023-01-11T05:58:28.638Z,0.00
2023-01-11T05:59:31.160Z,0.00
2023-01-11T06:00:28.614Z,0.00
2023-01-11T06:01:28.576Z,0.00
2023-01-11T06:02:28.713Z,0.00
2023-01-11T06:03:28.569Z,0.00
2023-01-11T06:04:28.563Z,0.00
2023-01-11T06:05:28.577Z,0.00
2023-01-11T06:06:28.529Z,0.00
2023-01-11T06:07:28.519Z,0.00
2023-01-11T06:08:28.556Z,0.00
2023-01-11T06:09:28.497Z,0.00
2023-01-11T06:10:28.531Z,0.00
2023-01-11T06:11:28.473Z,0.00
2023-01-11T06:12:28.471Z,0.00
2023-01-11T06:13:28.499Z,0.00
2023-01-11T06:14:28.439Z,0.00
2023-01-11T06:15:28.440Z,0.00
2023-01-11T06:16:28.439Z,0.00
2023-01-11T06:17:28.421Z,0.00
2023-01-11T06:18:28.565Z,0.00
2023-01-11T06:19:28.384Z,0.00
2023-01-11T06:20:28.377Z,0.00
2023-01-11T06:21:28.396Z,0.00
2023-01-11T06:22:28.482Z,0.00
2023-01-11T06:23:28.358Z,0.00
2023-01-11T06:24:28.335Z,0.00
2023-01-11T06:25:28.320Z,0.00
2023-01-11T06:26:28.331Z,0.00
2023-01-11T06:27:28.317Z,0.00
2023-01-11T06:28:28.318Z,0.00
2023-01-11T06:29:28.316Z,0.00
2023-01-11T06:30:28.404Z,0.00
2023-01-11T06:31:28.277Z,0.00
2023-01-11T06:32:28.288Z,0.00
2023-01-11T06:33:28.271Z,0.00
2023-01-11T06:34:28.251Z,0.00
2023-01-11T06:35:28.252Z,0.00
2023-01-11T06:36:29.762Z,0.00
2023-01-11T06:37:28.193Z,0.00
2023-01-11T06:38:28.219Z,0.00
2023-01-11T06:39:28.182Z,0.00
2023-01-11T06:40:28.145Z,1.00
2023-01-11T06:41:28.147Z,1.00
2023-01-11T06:42:28.156Z,0.00
2023-01-11T06:43:28.163Z,0.00
2023-01-11T06:44:28.140Z,0.00
2023-01-11T06:45:28.117Z,0.00
2023-01-11T06:46:29.203Z,0.00
2023-01-11T06:47:28.054Z,2.00
2023-01-11T06:48:28.063Z,2.00
2023-01-11T06:49:28.066Z,1.00
2023-01-11T06:50:28.002Z,1.00
2023-01-11T06:51:28.012Z,2.00
2023-01-11T06:52:27.990Z,2.00
2023-01-11T06:53:29.045Z,3.00
2023-01-11T06:54:27.997Z,3.00
2023-01-11T06:55:27.956Z,9.00
2023-01-11T06:56:27.939Z,5.00
2023-01-11T06:57:27.932Z,7.00
2023-01-11T06:58:27.950Z,6.00
2023-01-11T06:59:27.925Z,5.00
2023-01-11T07:00:27.905Z,10.00
2023-01-11T07:01:27.966Z,9.00
2023-01-11T07:02:27.895Z,14.00
2023-01-11T07:03:27.968Z,16.00
2023-01-11T07:04:27.858Z,17.00
2023-01-11T07:05:27.876Z,18.00
2023-01-11T07:06:27.832Z,24.00
2023-01-11T07:07:27.862Z,23.00
2023-01-11T07:08:27.856Z,26.00
2023-01-11T07:09:27.824Z,27.00
2023-01-11T07:10:27.809Z,27.00
2023-01-11T07:11:27.799Z,34.00
2023-01-11T07:12:27.806Z,38.00
2023-01-11T07:13:27.795Z,40.00
2023-01-11T07:14:27.754Z,41.00
2023-01-11T07:15:27.754Z,44.00
2023-01-11T07:16:27.764Z,44.00
2023-01-11T07:17:27.739Z,48.00
2023-01-11T07:18:27.905Z,52.00
2023-01-11T07:19:27.713Z,55.00
2023-01-11T07:20:27.704Z,62.00
2023-01-11T07:21:27.696Z,63.00
2023-01-11T07:22:27.713Z,68.00
2023-01-11T07:23:27.706Z,64.00
2023-01-11T07:24:27.660Z,70.00
2023-01-11T07:25:27.648Z,73.00
2023-01-11T07:26:27.795Z,75.00
2023-01-11T07:27:27.674Z,83.00
2023-01-11T07:28:27.631Z,89.00
2023-01-11T07:29:27.632Z,93.00
2023-01-11T07:30:27.613Z,104.00
2023-01-11T07:31:27.711Z,113.00
2023-01-11T07:32:27.589Z,125.00
2023-01-11T07:33:28.159Z,136.00
2023-01-11T07:34:27.587Z,150.00
2023-01-11T07:35:29.010Z,160.00
2023-01-11T07:36:27.576Z,174.00
2023-01-11T07:37:29.086Z,180.00
2023-01-11T07:38:27.521Z,187.00
2023-01-11T07:39:42.245Z,204.00
2023-01-11T07:40:27.509Z,219.00
2023-01-11T07:41:27.477Z,231.00
2023-01-11T07:42:27.500Z,237.00
2023-01-11T07:43:27.491Z,244.00
2023-01-11T07:44:27.442Z,254.00
2023-01-11T07:45:37.381Z,268.00
2023-01-11T07:46:27.511Z,264.00
2023-01-11T07:47:27.416Z,267.00
2023-01-11T07:48:27.528Z,268.00
2023-01-11T07:49:27.392Z,278.00
2023-01-11T07:50:27.385Z,299.00
2023-01-11T07:51:27.384Z,300.00
2023-01-11T07:52:27.399Z,306.00
2023-01-11T07:53:27.375Z,309.00
2023-01-11T07:54:27.333Z,327.00
2023-01-11T07:55:27.330Z,327.00
2023-01-11T07:56:27.335Z,335.00
2023-01-11T07:57:27.316Z,327.00
2023-01-11T07:58:27.378Z,340.00
2023-01-11T07:59:27.305Z,354.00
2023-01-11T08:00:27.277Z,335.00
2023-01-11T08:01:27.280Z,318.00
2023-01-11T08:02:27.481Z,317.00
2023-01-11T08:03:27.405Z,322.00
2023-01-11T08:04:27.245Z,319.00
2023-01-11T08:05:27.267Z,310.00
2023-01-11T08:06:27.215Z,323.00
2023-01-11T08:07:27.206Z,326.00
2023-01-11T08:08:27.272Z,329.00
2023-01-11T08:09:27.205Z,331.00
2023-01-11T08:10:27.216Z,328.00
2023-01-11T08:11:27.162Z,344.00
2023-01-11T08:12:27.178Z,378.00
2023-01-11T08:13:27.171Z,378.00
2023-01-11T08:14:27.136Z,413.00
2023-01-11T08:15:27.125Z,428.00
2023-01-11T08:16:27.113Z,416.00
2023-01-11T08:17:27.104Z,399.00
2023-01-11T08:18:27.164Z,382.00
2023-01-11T08:19:27.101Z,367.00
2023-01-11T08:20:27.106Z,406.00
2023-01-11T08:21:27.060Z,413.00
2023-01-11T08:22:27.051Z,416.00
2023-01-11T08:23:27.088Z,412.00
2023-01-11T08:24:27.022Z,388.00
2023-01-11T08:25:27.015Z,436.00
2023-01-11T08:26:27.023Z,444.00
2023-01-11T08:27:26.996Z,454.00
2023-01-11T08:28:27.004Z,436.00
2023-01-11T08:29:27.002Z,459.00
2023-01-11T08:30:26.956Z,469.00
2023-01-11T08:31:27.054Z,483.00
2023-01-11T08:32:26.990Z,471.00
2023-01-11T08:33:26.936Z,480.00
2023-01-11T08:34:26.943Z,482.00
2023-01-11T08:35:26.939Z,486.00
2023-01-11T08:36:26.915Z,474.00
2023-01-11T08:37:26.892Z,472.00
2023-01-11T08:38:26.915Z,481.00
2023-01-11T08:39:26.894Z,485.00
2023-01-11T08:40:26.920Z,484.00
2023-01-11T08:41:26.853Z,537.00
2023-01-11T08:42:26.846Z,555.00
2023-01-11T08:43:26.834Z,586.00
2023-01-11T08:44:33.970Z,618.00
2023-01-11T08:45:26.833Z,646.00
2023-01-11T08:46:26.844Z,630.00
2023-01-11T08:47:26.807Z,639.00
2023-01-11T08:48:26.773Z,653.00
2023-01-11T08:49:26.818Z,695.00
2023-01-11T08:50:26.795Z,732.00
2023-01-11T08:51:26.777Z,763.00
2023-01-11T08:52:26.748Z,808.00
2023-01-11T08:53:26.724Z,818.00
2023-01-11T08:54:26.788Z,789.00
2023-01-11T08:55:26.726Z,814.00
2023-01-11T08:56:26.707Z,797.00
2023-01-11T08:57:26.691Z,772.00
2023-01-11T08:58:26.682Z,724.00
2023-01-11T08:59:26.702Z,725.00
2023-01-11T09:00:26.671Z,752.00
2023-01-11T09:01:26.676Z,734.00
2023-01-11T09:02:26.689Z,712.00
2023-01-11T09:03:26.623Z,737.00
2023-01-11T09:04:26.659Z,800.00
2023-01-11T09:05:26.606Z,871.00
2023-01-11T09:06:26.601Z,855.00
2023-01-11T09:07:26.596Z,874.00
2023-01-11T09:08:26.579Z,1012.00
2023-01-11T09:09:26.582Z,920.00
2023-01-11T09:10:26.570Z,913.00
2023-01-11T09:11:26.539Z,899.00
2023-01-11T09:12:26.526Z,894.00
2023-01-11T09:13:26.536Z,897.00
2023-01-11T09:14:26.547Z,854.00
2023-01-11T09:15:26.530Z,839.00
2023-01-11T09:16:26.487Z,866.00
2023-01-11T09:17:26.506Z,856.00
2023-01-11T09:18:26.458Z,816.00
2023-01-11T09:19:26.506Z,879.00
2023-01-11T09:20:26.532Z,994.00
2023-01-11T09:21:26.452Z,998.00
2023-01-11T09:22:26.424Z,1109.00
2023-01-11T09:23:26.429Z,1133.00
2023-01-11T09:24:26.448Z,1073.00
2023-01-11T09:25:26.398Z,1135.00
2023-01-11T09:26:26.373Z,1204.00
2023-01-11T09:27:26.392Z,1250.00
2023-01-11T09:28:26.358Z,1403.00
2023-01-11T09:29:26.385Z,1432.00
2023-01-11T09:30:26.433Z,1275.00
2023-01-11T09:31:26.379Z,1229.00
2023-01-11T09:32:26.312Z,1230.00
2023-01-11T09:33:26.326Z,1141.00
2023-01-11T09:34:26.327Z,1102.00
2023-01-11T09:35:26.299Z,1130.00
2023-01-11T09:36:26.313Z,1078.00
2023-01-11T09:37:26.268Z,997.00
2023-01-11T09:38:26.249Z,996.00
2023-01-11T09:39:26.280Z,869.00
2023-01-11T09:40:26.328Z,811.00
2023-01-11T09:41:26.246Z,781.00
2023-01-11T09:42:26.382Z,752.00
2023-01-11T09:43:26.225Z,717.00
2023-01-11T09:44:26.226Z,711.00
2023-01-11T09:45:26.199Z,740.00
2023-01-11T09:46:26.197Z,791.00
2023-01-11T09:47:26.153Z,856.00
2023-01-11T09:48:26.165Z,856.00
2023-01-11T09:49:26.143Z,804.00
2023-01-11T09:50:26.142Z,804.00
2023-01-11T09:51:26.172Z,793.00
2023-01-11T09:52:26.117Z,839.00
2023-01-11T09:53:26.105Z,877.00
2023-01-11T09:54:26.099Z,795.00
2023-01-11T09:55:26.083Z,798.00
2023-01-11T09:56:26.073Z,748.00
2023-01-11T09:57:26.065Z,875.00
2023-01-11T09:58:26.048Z,739.00
2023-01-11T09:59:26.039Z,679.00
2023-01-11T10:00:26.155Z,905.00
2023-01-11T10:01:26.035Z,739.00
2023-01-11T10:02:26.011Z,737.00
2023-01-11T10:03:26.024Z,861.00
2023-01-11T10:04:26.034Z,737.00
2023-01-11T10:05:25.994Z,796.00
2023-01-11T10:06:25.984Z,703.00
2023-01-11T10:07:25.964Z,720.00
2023-01-11T10:18:23.291Z,814.00
2023-01-11T10:18:58.513Z,761.00
2023-01-11T10:19:35.028Z,862.00
2023-01-11T10:19:49.096Z,975.00
2023-01-11T10:20:49.026Z,923.00
2023-01-11T10:21:49.031Z,1170.00
2023-01-11T10:22:49.042Z,1205.00
2023-01-11T10:23:48.973Z,1024.00
2023-01-11T10:24:48.973Z,1108.00
2023-01-11T10:25:48.953Z,1358.00
2023-01-11T10:26:49.053Z,1227.00
2023-01-11T10:27:48.914Z,1098.00
2023-01-11T10:28:48.939Z,1061.00
2023-01-11T10:29:48.954Z,1190.00
2023-01-11T10:30:48.901Z,1144.00
2023-01-11T10:31:49.036Z,1060.00
2023-01-11T10:32:48.892Z,1317.00
2023-01-11T10:33:48.862Z,1239.00
2023-01-11T10:34:48.856Z,1157.00
2023-01-11T10:35:48.864Z,1150.00
2023-01-11T10:36:48.853Z,1164.00
2023-01-11T10:37:48.835Z,1023.00
2023-01-11T10:38:48.903Z,1013.00
2023-01-11T10:39:48.811Z,922.00
2023-01-11T10:40:48.812Z,1252.00
2023-01-11T10:41:48.852Z,1180.00
2023-01-11T10:42:48.767Z,1115.00
2023-01-11T10:43:48.758Z,1012.00
2023-01-11T10:44:48.785Z,1067.00
2023-01-11T10:45:48.826Z,1038.00
2023-01-11T10:46:48.752Z,947.00
2023-01-11T10:47:48.805Z,805.00
2023-01-11T10:48:48.716Z,1027.00
2023-01-11T10:49:48.702Z,1021.00
2023-01-11T10:50:48.716Z,970.00
2023-01-11T10:51:48.738Z,1077.00
2023-01-11T10:52:48.659Z,972.00
2023-01-11T10:53:48.654Z,1101.00
2023-01-11T10:54:50.140Z,929.00
2023-01-11T10:55:48.662Z,995.00
2023-01-11T10:57:02.967Z,1039.00
2023-01-11T10:58:00.027Z,1075.00
2023-01-11T10:58:48.648Z,841.00
2023-01-11T10:59:48.594Z,686.00
2023-01-11T11:00:48.696Z,871.00
2023-01-11T11:01:48.614Z,1046.00
2023-01-11T11:02:48.649Z,885.00
2023-01-11T11:03:48.536Z,1057.00
2023-01-11T11:04:48.552Z,917.00
2023-01-11T11:05:48.580Z,945.00
2023-01-11T11:06:48.534Z,951.00
2023-01-11T11:07:48.507Z,976.00
2023-01-11T11:08:48.518Z,922.00
2023-01-11T11:09:48.484Z,787.00
2023-01-11T11:10:48.550Z,1007.00
2023-01-11T11:11:48.472Z,878.00
2023-01-11T11:12:48.485Z,999.00
2023-01-11T11:13:48.467Z,861.00
2023-01-11T11:14:48.452Z,1010.00
2023-01-11T11:15:48.456Z,985.00
2023-01-11T11:16:48.453Z,1034.00
2023-01-11T11:17:48.425Z,980.00
2023-01-11T11:18:48.407Z,869.00
2023-01-11T11:19:48.395Z,705.00
2023-01-11T11:20:48.386Z,1002.00
2023-01-11T11:21:48.374Z,999.00
2023-01-11T11:22:48.371Z,900.00
2023-01-11T11:23:48.338Z,891.00
2023-01-11T11:24:48.357Z,772.00
2023-01-11T11:25:48.336Z,754.00
2023-01-11T11:26:48.360Z,1054.00
2023-01-11T11:27:48.337Z,686.00
2023-01-11T11:28:48.278Z,1040.00
2023-01-11T11:29:48.282Z,929.00
2023-01-11T11:30:48.262Z,858.00
2023-01-11T11:31:48.421Z,736.00
2023-01-11T11:32:48.255Z,796.00
2023-01-11T11:33:48.232Z,904.00
2023-01-11T11:34:48.237Z,906.00
2023-01-11T11:35:48.208Z,634.00
2023-01-11T11:36:48.216Z,776.00
2023-01-11T11:37:48.197Z,823.00
2023-01-11T11:38:48.201Z,556.00
2023-01-11T11:39:48.169Z,761.00
2023-01-11T11:40:48.186Z,623.00
2023-01-11T11:41:48.179Z,763.00
2023-01-11T11:42:48.149Z,678.00
2023-01-11T11:43:48.150Z,537.00
2023-01-11T11:44:48.133Z,841.00
2023-01-11T11:45:48.154Z,667.00
2023-01-11T11:46:48.138Z,708.00
2023-01-11T11:47:48.103Z,808.00
2023-01-11T11:48:48.093Z,651.00
2023-01-11T11:49:48.069Z,765.00
2023-01-11T11:50:48.066Z,656.00
2023-01-11T11:51:48.127Z,759.00
2023-01-11T11:52:48.027Z,557.00
2023-01-11T11:53:48.067Z,666.00
2023-01-11T11:54:48.030Z,602.00
2023-01-11T11:55:48.029Z,683.00
2023-01-11T11:56:48.002Z,530.00
2023-01-11T11:57:48.010Z,676.00
2023-01-11T11:58:47.979Z,706.00
2023-01-11T11:59:47.968Z,553.00
2023-01-11T12:00:47.957Z,666.00
2023-01-11T12:01:48.057Z,756.00
2023-01-11T12:02:47.946Z,742.00
2023-01-11T12:03:47.929Z,921.00
2023-01-11T12:04:47.960Z,716.00
2023-01-11T12:05:47.932Z,823.00
2023-01-11T12:06:49.243Z,840.00
2023-01-11T12:07:54.690Z,746.00
2023-01-11T12:08:47.871Z,781.00
2023-01-11T12:09:47.868Z,804.00
2023-01-11T12:10:47.897Z,983.00
2023-01-11T12:11:47.865Z,579.00
2023-01-11T12:12:47.842Z,785.00
2023-01-11T12:13:47.819Z,1155.00
2023-01-11T12:14:47.845Z,836.00
2023-01-11T12:15:47.860Z,787.00
2023-01-11T12:16:47.851Z,842.00
2023-01-11T12:17:47.803Z,747.00
2023-01-11T12:18:47.782Z,1000.00
2023-01-11T12:19:47.765Z,974.00
2023-01-11T12:20:47.750Z,826.00
2023-01-11T12:21:47.733Z,775.00
2023-01-11T12:22:47.733Z,902.00
2023-01-11T12:23:47.735Z,1170.00
2023-01-11T12:24:47.703Z,1007.00
2023-01-11T12:25:47.787Z,877.00
2023-01-11T12:26:47.804Z,850.00
2023-01-11T12:27:47.689Z,983.00
2023-01-11T12:28:47.675Z,889.00
2023-01-11T12:29:47.673Z,966.00
2023-01-11T12:30:47.667Z,1093.00
2023-01-11T12:31:47.625Z,1005.00
2023-01-11T12:32:47.633Z,851.00
2023-01-11T12:33:47.605Z,795.00
2023-01-11T12:34:47.591Z,741.00
2023-01-11T12:35:47.605Z,686.00
2023-01-11T12:36:47.588Z,734.00
2023-01-11T12:37:47.564Z,778.00
2023-01-11T12:38:47.575Z,720.00
2023-01-11T12:39:47.563Z,681.00
2023-01-11T12:40:47.574Z,546.00
2023-01-11T12:41:47.523Z,593.00
2023-01-11T12:42:47.522Z,683.00
2023-01-11T12:43:47.509Z,609.00
2023-01-11T12:44:47.496Z,625.00
2023-01-11T12:45:47.514Z,483.00
2023-01-11T12:46:47.510Z,587.00
2023-01-11T12:47:47.492Z,483.00
2023-01-11T12:48:47.449Z,475.00
2023-01-11T12:49:47.439Z,592.00
2023-01-11T12:50:47.446Z,443.00
2023-01-11T12:51:47.439Z,579.00
2023-01-11T12:52:47.445Z,625.00
2023-01-11T12:53:47.432Z,523.00
2023-01-11T12:54:47.405Z,530.00
2023-01-11T12:55:47.380Z,482.00
2023-01-11T12:56:47.384Z,482.00
2023-01-11T12:57:47.370Z,544.00
2023-01-11T12:58:47.347Z,573.00
2023-01-11T12:59:47.337Z,509.00
2023-01-11T13:00:47.337Z,525.00
2023-01-11T13:01:47.438Z,466.00